Time;durP1;ratioP1;P1;durP2;ratioP2;P2;SDS_P1;SDS_P2;PMS_P1;PMS_P2;Temp;Humidity;BMP_temperature;BMP_pressure;BME280_temperature;BME280_humidity;BME280_pressure;Samples;Min_cycle;Max_cycle;Signal;HPM_P1;HPM_P2
2023/01/31 00:01:14;;;;;;;8.57;1.70;;;5.70;99.90;;;;;;5035325;28;20120;-91
2023/01/31 00:03:40;;;;;;;13.60;1.65;;;5.70;99.90;;;;;;5034649;28;20024;-92
2023/01/31 00:06:26;;;;;;;10.52;1.65;;;5.80;99.90;;;;;;5035924;28;20025;-91
2023/01/31 00:08:53;;;;;;;15.05;2.25;;;5.80;99.90;;;;;;5036303;28;20043;-91
2023/01/31 00:11:23;;;;;;;11.10;1.60;;;5.70;99.90;;;;;;5035805;28;20030;-92
2023/01/31 00:13:49;;;;;;;11.63;1.93;;;5.80;99.90;;;;;;5035880;28;20035;-93
2023/01/31 00:16:16;;;;;;;17.50;2.13;;;5.80;99.90;;;;;;5053944;28;20051;-93
2023/01/31 00:18:42;;;;;;;14.70;2.10;;;5.80;99.90;;;;;;5035728;28;20520;-92
2023/01/31 00:21:17;;;;;;;8.70;2.05;;;5.80;99.90;;;;;;5035742;28;20017;-89
2023/01/31 00:23:43;;;;;;;10.25;2.33;;;5.80;99.90;;;;;;5053891;28;20029;-91
2023/01/31 00:26:18;;;;;;;16.27;2.45;;;5.80;99.90;;;;;;5036346;28;20025;-91
2023/01/31 00:28:45;;;;;;;13.93;2.00;;;5.80;99.90;;;;;;5053631;28;20147;-93
2023/01/31 00:31:12;;;;;;;14.68;3.40;;;5.80;99.90;;;;;;5053671;28;20025;-92
2023/01/31 00:33:39;;;;;;;12.20;1.80;;;5.80;99.90;;;;;;5035785;28;20025;-92
2023/01/31 00:36:08;;;;;;;8.73;1.83;;;5.80;99.90;;;;;;5052832;28;20084;-91
2023/01/31 00:38:34;;;;;;;12.93;3.42;;;5.80;99.90;;;;;;5035606;28;20112;-90
2023/01/31 00:41:01;;;;;;;17.25;2.00;;;5.80;99.90;;;;;;5052707;28;20033;-92
2023/01/31 00:43:26;;;;;;;11.80;1.98;;;5.80;99.90;;;;;;5034983;28;20025;-89
2023/01/31 00:45:52;;;;;;;13.60;1.65;;;5.80;99.90;;;;;;5035107;28;20394;-91
2023/01/31 00:48:18;;;;;;;9.75;1.70;;;5.90;99.90;;;;;;5053110;28;20033;-89
2023/01/31 00:50:44;;;;;;;12.60;1.95;;;5.80;99.90;;;;;;5035734;28;20025;-91
2023/01/31 00:53:09;;;;;;;11.82;2.03;;;5.80;99.90;;;;;;5052557;28;20025;-92
2023/01/31 00:55:35;;;;;;;12.27;2.40;;;5.80;99.90;;;;;;5034916;28;20025;-91
2023/01/31 00:58:00;;;;;;;9.18;1.50;;;5.80;99.90;;;;;;5034711;28;20028;-92
2023/01/31 01:00:26;;;;;;;14.63;2.15;;;5.80;99.90;;;;;;5034768;28;20033;-90
2023/01/31 01:02:52;;;;;;;13.25;2.08;;;5.80;99.90;;;;;;5034654;28;20524;-92
2023/01/31 01:05:17;;;;;;;10.77;1.70;;;5.80;99.90;;;;;;5052622;28;20387;-90
2023/01/31 01:07:43;;;;;;;9.68;1.98;;;5.80;99.90;;;;;;5034897;28;20052;-90
2023/01/31 01:10:09;;;;;;;10.98;2.20;;;5.80;99.90;;;;;;5052491;28;20056;-91
2023/01/31 01:12:35;;;;;;;7.43;1.25;;;5.80;99.90;;;;;;5052466;28;20220;-91
2023/01/31 01:15:01;;;;;;;10.63;1.55;;;5.80;99.90;;;;;;5034966;28;20055;-91
2023/01/31 01:17:26;;;;;;;12.30;1.50;;;5.90;99.90;;;;;;5052718;28;20390;-92
2023/01/31 01:19:52;;;;;;;13.63;1.77;;;5.80;99.90;;;;;;5052775;28;20021;-92
2023/01/31 01:22:18;;;;;;;13.98;2.05;;;5.80;99.90;;;;;;5052428;28;20025;-91
2023/01/31 01:24:44;;;;;;;11.65;2.35;;;5.80;99.90;;;;;;5052696;28;20032;-91
2023/01/31 01:27:10;;;;;;;14.68;2.75;;;5.90;99.90;;;;;;5052410;28;20052;-92
2023/01/31 01:29:37;;;;;;;8.02;1.83;;;5.90;99.90;;;;;;5053227;28;20077;-91
2023/01/31 01:32:03;;;;;;;7.93;1.40;;;5.90;99.90;;;;;;5034621;28;20032;-92
2023/01/31 01:34:29;;;;;;;5.13;1.25;;;5.90;99.90;;;;;;5036313;28;20033;-91
2023/01/31 01:36:54;;;;;;;14.80;1.80;;;5.90;99.90;;;;;;5063165;28;20390;-89
2023/01/31 01:39:20;;;;;;;8.50;1.02;;;6.00;99.90;;;;;;5035498;28;20063;-91
2023/01/31 01:41:46;;;;;;;6.20;1.33;;;6.00;99.90;;;;;;5053187;28;20087;-90
2023/01/31 01:44:43;;;;;;;4.82;1.17;;;6.00;99.90;;;;;;5052760;28;20086;-93
2023/01/31 01:47:26;;;;;;;10.23;1.35;;;6.00;99.90;;;;;;5035402;28;20122;-91
2023/01/31 01:50:32;;;;;;;8.82;1.77;;;6.00;99.90;;;;;;5055993;28;20041;-91
2023/01/31 01:53:01;;;;;;;12.48;1.40;;;6.10;99.90;;;;;;5036562;28;20033;-91
2023/01/31 01:55:37;;;;;;;8.02;1.92;;;6.10;99.90;;;;;;5059041;28;20045;-91
2023/01/31 01:58:10;;;;;;;12.70;1.38;;;6.10;99.90;;;;;;5058561;28;20124;-90
2023/01/31 02:00:37;;;;;;;10.38;2.00;;;6.10;99.90;;;;;;5056141;28;20180;-91
2023/01/31 02:03:05;;;;;;;9.00;1.20;;;6.20;99.90;;;;;;5038724;28;20136;-91
2023/01/31 02:05:58;;;;;;;10.27;1.40;;;6.20;99.90;;;;;;5039225;28;20115;-92
2023/01/31 02:08:28;;;;;;;9.85;1.27;;;6.20;99.90;;;;;;5034003;28;20076;-91
2023/01/31 02:11:12;;;;;;;8.65;1.30;;;6.20;99.90;;;;;;5038724;28;20051;-91
2023/01/31 02:13:40;;;;;;;10.57;1.60;;;6.20;99.90;;;;;;5038512;28;20040;-91
2023/01/31 02:16:06;;;;;;;8.10;1.20;;;6.30;99.90;;;;;;5038072;28;20029;-92
2023/01/31 02:18:32;;;;;;;8.35;1.30;;;6.30;99.90;;;;;;5037784;28;20032;-91
2023/01/31 02:21:34;;;;;;;5.28;0.90;;;6.30;99.90;;;;;;5037731;28;20017;-92
2023/01/31 02:24:18;;;;;;;7.78;1.80;;;6.30;99.90;;;;;;5038070;28;20545;-91
2023/01/31 02:26:44;;;;;;;14.60;1.15;;;6.30;99.90;;;;;;5055788;28;20025;-93
2023/01/31 02:29:24;;;;;;;5.90;1.13;;;6.30;99.90;;;;;;5037751;28;20044;-91
2023/01/31 02:32:02;;;;;;;11.25;1.40;;;6.30;99.90;;;;;;5037235;28;20479;-92
2023/01/31 02:34:31;;;;;;;6.45;1.10;;;6.40;99.90;;;;;;5036903;28;20029;-90
2023/01/31 02:37:08;;;;;;;7.03;1.00;;;6.40;99.90;;;;;;5037922;28;20056;-91
2023/01/31 02:40:07;;;;;;;9.35;1.13;;;6.50;99.90;;;;;;5037430;28;20021;-92
2023/01/31 02:42:45;;;;;;;9.75;2.08;;;6.50;99.90;;;;;;5037478;28;20039;-92
2023/01/31 02:45:22;;;;;;;8.25;1.50;;;6.50;99.90;;;;;;5054673;28;20024;-91
2023/01/31 02:48:20;;;;;;;7.72;1.30;;;6.50;99.90;;;;;;5054859;28;20100;-91
2023/01/31 02:51:11;;;;;;;12.70;1.20;;;6.50;99.90;;;;;;5037362;28;20055;-91
2023/01/31 02:53:59;;;;;;;;;;;6.50;99.90;;;;;;5037919;28;20028;-90
2023/01/31 02:56:33;;;;;;;21.08;3.03;;;6.50;99.90;;;;;;5037295;28;19928;-91
2023/01/31 02:59:04;;;;;;;14.35;2.25;;;6.60;99.90;;;;;;5054711;28;20065;-91
2023/01/31 03:01:43;;;;;;;12.35;2.10;;;6.60;99.90;;;;;;5036743;28;20047;-93
2023/01/31 03:04:11;;;;;;;11.38;1.30;;;6.60;99.90;;;;;;5054760;28;20159;-92
2023/01/31 03:06:36;;;;;;;8.07;1.30;;;6.60;99.90;;;;;;5036633;28;20044;-92
2023/01/31 03:09:27;;;;;;;9.88;2.08;;;6.60;99.90;;;;;;5036810;28;20128;-91
2023/01/31 03:12:09;;;;;;;18.40;2.78;;;6.60;99.90;;;;;;5037204;28;20025;-93
2023/01/31 03:14:46;;;;;;;9.57;1.48;;;6.60;99.90;;;;;;5055222;28;20029;-92
2023/01/31 03:17:35;;;;;;;15.45;1.60;;;6.60;99.90;;;;;;5067315;28;20077;-91
2023/01/31 03:20:17;;;;;;;11.13;1.48;;;6.60;99.90;;;;;;5036341;28;20433;-91
2023/01/31 03:22:53;;;;;;;11.95;2.00;;;6.60;99.90;;;;;;5054196;28;20605;-92
2023/01/31 03:25:23;;;;;;;9.43;1.92;;;6.60;99.90;;;;;;5054448;28;20086;-91
2023/01/31 03:27:55;;;;;;;14.40;1.73;;;6.60;99.90;;;;;;5053983;28;20083;-89
2023/01/31 03:30:29;;;;;;;10.82;1.75;;;6.70;99.90;;;;;;5054214;28;20036;-90
2023/01/31 03:33:16;;;;;;;11.07;1.73;;;6.70;99.90;;;;;;5054029;28;20025;-90
2023/01/31 03:35:51;;;;;;;12.07;1.95;;;6.70;99.90;;;;;;5054105;28;20048;-92
2023/01/31 03:38:29;;;;;;;10.80;2.22;;;6.70;99.90;;;;;;5053857;28;20108;-92
2023/01/31 03:41:13;;;;;;;12.55;1.88;;;6.80;99.90;;;;;;5050172;28;20039;-92
2023/01/31 03:43:51;;;;;;;16.77;2.40;;;6.80;99.90;;;;;;5035861;28;20039;-92
2023/01/31 03:46:24;;;;;;;8.82;1.73;;;6.90;99.90;;;;;;5036397;28;20030;-93
2023/01/31 03:48:54;;;;;;;15.50;2.72;;;6.90;99.90;;;;;;5036226;28;20029;-92
2023/01/31 03:51:26;;;;;;;12.68;1.92;;;7.00;99.90;;;;;;5054409;28;20025;-93
2023/01/31 03:54:04;;;;;;;6.45;1.63;;;7.00;99.90;;;;;;5053913;28;20029;-92
2023/01/31 03:56:44;;;;;;;10.88;1.67;;;7.00;99.90;;;;;;5036160;28;20021;-91
2023/01/31 03:59:17;;;;;;;10.70;2.03;;;7.00;99.90;;;;;;5036084;28;20037;-90
2023/01/31 04:01:47;;;;;;;20.92;1.88;;;7.00;99.90;;;;;;5054067;28;20029;-93
2023/01/31 04:04:41;;;;;;;4.88;1.17;;;7.00;99.90;;;;;;5035930;28;20383;-93
2023/01/31 04:07:07;;;;;;;10.70;1.73;;;7.10;99.90;;;;;;5054229;28;20112;-92
2023/01/31 04:09:33;;;;;;;13.82;2.10;;;7.10;99.90;;;;;;5035743;28;20037;-91
2023/01/31 04:12:01;;;;;;;16.02;2.20;;;7.10;99.90;;;;;;5035096;28;20021;-90
2023/01/31 04:14:27;;;;;;;13.38;2.28;;;7.10;99.90;;;;;;5035489;28;20433;-93
2023/01/31 04:16:53;;;;;;;9.50;1.98;;;7.10;99.90;;;;;;5035330;28;20048;-92
2023/01/31 04:19:18;;;;;;;13.77;2.20;;;7.10;99.90;;;;;;5035913;28;20029;-92
2023/01/31 04:21:44;;;;;;;12.45;2.50;;;7.10;99.90;;;;;;5035784;28;20102;-93
2023/01/31 04:24:09;;;;;;;11.35;2.35;;;7.10;99.90;;;;;;5035005;28;20504;-90
2023/01/31 04:26:36;;;;;;;15.07;3.15;;;7.10;99.90;;;;;;5035403;28;20115;-91
2023/01/31 04:29:02;;;;;;;19.80;4.18;;;7.10;99.90;;;;;;5053058;28;20033;-94
2023/01/31 04:31:27;;;;;;;17.83;4.78;;;7.00;99.90;;;;;;5053046;28;20028;-92
2023/01/31 04:33:53;;;;;;;17.08;5.40;;;7.00;99.90;;;;;;5052653;28;20033;-92
2023/01/31 04:36:19;;;;;;;16.95;4.03;;;7.00;99.90;;;;;;5035343;28;20047;-93
2023/01/31 04:38:45;;;;;;;12.65;2.58;;;7.00;99.90;;;;;;5053404;28;20024;-91
2023/01/31 04:41:10;;;;;;;10.30;2.33;;;7.00;99.90;;;;;;5035282;28;20144;-93
2023/01/31 04:43:36;;;;;;;11.15;1.95;;;7.00;99.90;;;;;;5052657;28;20021;-91
2023/01/31 04:46:01;;;;;;;10.30;1.48;;;7.00;99.90;;;;;;5053063;28;20454;-92
2023/01/31 04:48:27;;;;;;;7.07;1.58;;;6.90;99.90;;;;;;5034981;28;20119;-92
2023/01/31 04:50:53;;;;;;;10.95;3.60;;;7.00;99.90;;;;;;5035469;28;20125;-91
2023/01/31 04:53:20;;;;;;;9.13;2.78;;;6.90;99.90;;;;;;5038597;28;20089;-91
2023/01/31 04:55:46;;;;;;;8.23;1.70;;;6.90;99.90;;;;;;5042269;28;20025;-88
2023/01/31 04:58:12;;;;;;;6.50;0.90;;;6.90;99.90;;;;;;5039593;28;20037;-90
2023/01/31 05:00:38;;;;;;;3.22;1.60;;;7.00;99.90;;;;;;5037788;28;20076;-91
2023/01/31 05:03:03;;;;;;;8.55;1.80;;;6.90;99.90;;;;;;5036900;28;20032;-90
2023/01/31 05:05:29;;;;;;;6.30;1.67;;;6.90;99.90;;;;;;5036247;28;20017;-90
2023/01/31 05:07:55;;;;;;;9.90;1.45;;;6.90;99.90;;;;;;5035362;28;20025;-89
2023/01/31 05:10:21;;;;;;;5.22;1.50;;;6.90;99.90;;;;;;5035286;28;20032;-90
2023/01/31 05:12:46;;;;;;;2.55;1.10;;;6.90;99.90;;;;;;5035360;28;20362;-90
2023/01/31 05:15:12;;;;;;;3.88;1.52;;;6.90;99.90;;;;;;5034903;28;20039;-90
2023/01/31 05:17:38;;;;;;;2.97;0.98;;;6.90;99.90;;;;;;5035226;28;20029;-91
2023/01/31 05:20:04;;;;;;;3.70;1.58;;;6.90;99.90;;;;;;5035764;28;20028;-89
2023/01/31 05:22:30;;;;;;;3.55;1.77;;;6.90;99.90;;;;;;5052395;28;20063;-89
2023/01/31 05:24:56;;;;;;;8.65;2.90;;;6.90;99.90;;;;;;5038595;28;20033;-90
2023/01/31 05:27:21;;;;;;;8.85;3.60;;;7.00;99.90;;;;;;5038512;28;20029;-89
2023/01/31 05:29:47;;;;;;;9.27;4.80;;;7.00;99.90;;;;;;5038627;28;20025;-89
2023/01/31 05:32:13;;;;;;;10.23;4.63;;;7.00;99.90;;;;;;5038456;28;20040;-90
2023/01/31 05:34:39;;;;;;;11.07;4.22;;;7.00;99.90;;;;;;5039276;28;20025;-91
2023/01/31 05:37:05;;;;;;;5.13;2.92;;;7.10;99.90;;;;;;5038652;28;20124;-91
2023/01/31 05:39:31;;;;;;;9.82;4.97;;;7.10;99.90;;;;;;5056859;28;20096;-91
2023/01/31 05:41:56;;;;;;;7.03;4.95;;;7.10;99.90;;;;;;5038692;28;20029;-90
2023/01/31 05:44:22;;;;;;;16.25;5.40;;;7.10;99.90;;;;;;5037954;28;20029;-92
2023/01/31 05:46:48;;;;;;;10.32;4.78;;;7.20;99.90;;;;;;5038255;28;20421;-91
2023/01/31 05:49:15;;;;;;;8.07;5.85;;;7.20;99.90;;;;;;5038286;28;20047;-91
2023/01/31 05:51:41;;;;;;;11.07;6.75;;;7.20;99.90;;;;;;5037964;28;20067;-91
2023/01/31 05:54:07;;;;;;;9.88;5.22;;;7.30;99.90;;;;;;5038359;28;20040;-91
2023/01/31 05:56:33;;;;;;;9.65;4.78;;;7.30;99.90;;;;;;5038527;28;20102;-90
2023/01/31 05:59:01;;;;;;;10.10;5.38;;;7.30;99.90;;;;;;5037850;28;20102;-92
2023/01/31 06:01:27;;;;;;;11.85;6.57;;;7.30;99.90;;;;;;5037907;28;20028;-90
2023/01/31 06:03:53;;;;;;;13.57;7.60;;;7.40;99.90;;;;;;5037905;28;20071;-90
2023/01/31 06:06:20;;;;;;;8.30;5.97;;;7.30;99.90;;;;;;5037554;28;20044;-92
2023/01/31 06:08:46;;;;;;;9.02;5.85;;;7.30;99.90;;;;;;5038506;28;20037;-91
2023/01/31 06:11:13;;;;;;;8.30;5.95;;;7.30;99.90;;;;;;5038400;28;20021;-89
2023/01/31 06:13:42;;;;;;;10.82;7.22;;;7.40;99.90;;;;;;5055222;28;20033;-90
2023/01/31 06:16:08;;;;;;;10.68;7.28;;;7.30;99.90;;;;;;5037341;28;20055;-91
2023/01/31 06:18:34;;;;;;;13.18;7.00;;;7.30;99.90;;;;;;5037599;28;20025;-91
2023/01/31 06:20:59;;;;;;;9.68;5.68;;;7.30;99.90;;;;;;5055332;28;20031;-90
2023/01/31 06:23:25;;;;;;;6.72;4.63;;;7.30;99.90;;;;;;5055548;28;20033;-89
2023/01/31 06:25:52;;;;;;;10.25;5.78;;;7.30;99.90;;;;;;5055624;28;20032;-92
2023/01/31 06:28:18;;;;;;;8.52;5.10;;;7.30;99.90;;;;;;5055424;28;20489;-90
2023/01/31 06:30:44;;;;;;;3.45;3.15;;;7.30;99.90;;;;;;5055046;28;20054;-89
2023/01/31 06:33:11;;;;;;;8.38;4.80;;;7.30;99.90;;;;;;5037609;28;20609;-90
2023/01/31 06:35:37;;;;;;;5.25;4.30;;;7.30;99.90;;;;;;5054836;28;20035;-90
2023/01/31 06:38:03;;;;;;;7.55;5.03;;;7.30;99.90;;;;;;5055208;28;20048;-90
2023/01/31 06:40:29;;;;;;;3.97;3.53;;;7.40;99.90;;;;;;5057995;28;20060;-89
2023/01/31 06:42:56;;;;;;;6.13;3.15;;;7.40;99.90;;;;;;5040239;28;20028;-92
2023/01/31 06:45:22;;;;;;;5.00;3.00;;;7.40;99.90;;;;;;5055610;28;20059;-91
2023/01/31 06:47:47;;;;;;;8.23;4.45;;;7.50;99.90;;;;;;5037609;28;20497;-91
2023/01/31 06:50:13;;;;;;;4.70;4.00;;;7.50;99.90;;;;;;5054690;28;20021;-90
2023/01/31 06:52:39;;;;;;;4.28;3.70;;;7.50;99.90;;;;;;5036945;28;20083;-88
2023/01/31 06:55:06;;;;;;;3.63;3.33;;;7.50;99.90;;;;;;5036870;28;20021;-88
2023/01/31 06:57:32;;;;;;;4.53;3.53;;;7.50;99.90;;;;;;5053755;28;20454;-89
2023/01/31 06:59:57;;;;;;;6.53;3.72;;;7.50;99.90;;;;;;5036838;28;20140;-90
2023/01/31 07:02:23;;;;;;;3.55;3.08;;;7.50;99.90;;;;;;5036581;28;20052;-90
2023/01/31 07:04:50;;;;;;;4.00;3.42;;;7.50;99.90;;;;;;5035971;28;20041;-90
2023/01/31 07:07:16;;;;;;;5.18;3.22;;;7.50;99.90;;;;;;5033557;28;20498;-91
2023/01/31 07:09:42;;;;;;;5.80;5.20;;;7.50;99.90;;;;;;5036006;28;20032;-90
2023/01/31 07:12:10;;;;;;;7.43;3.05;;;7.50;99.90;;;;;;5036459;28;20029;-89
2023/01/31 07:14:36;;;;;;;2.30;2.08;;;7.50;99.90;;;;;;5050649;28;20029;-90
2023/01/31 07:17:01;;;;;;;6.35;2.63;;;7.50;99.90;;;;;;5036012;28;20040;-90
2023/01/31 07:19:27;;;;;;;2.08;1.88;;;7.50;99.90;;;;;;5053857;28;20531;-90
2023/01/31 07:21:53;;;;;;;3.30;2.42;;;7.50;99.90;;;;;;5036315;28;20155;-89
2023/01/31 07:24:18;;;;;;;2.58;2.38;;;7.50;99.90;;;;;;5036070;28;20037;-89
2023/01/31 07:26:44;;;;;;;5.25;2.83;;;7.60;99.90;;;;;;5035854;28;20017;-89
2023/01/31 07:29:10;;;;;;;3.42;2.70;;;7.50;99.90;;;;;;5035870;28;20120;-90
2023/01/31 07:31:37;;;;;;;2.88;2.30;;;7.50;99.90;;;;;;5036377;28;20052;-90
2023/01/31 07:34:03;;;;;;;4.07;2.47;;;7.50;99.90;;;;;;5036929;28;20037;-91
2023/01/31 07:36:29;;;;;;;3.60;2.58;;;7.50;99.90;;;;;;5036146;28;20023;-90
2023/01/31 07:38:56;;;;;;;2.72;1.50;;;7.50;99.90;;;;;;5037168;28;20036;-90
2023/01/31 07:41:25;;;;;;;2.17;1.80;;;7.50;99.90;;;;;;5036392;28;20049;-90
2023/01/31 07:43:51;;;;;;;2.20;1.45;;;7.60;99.90;;;;;;5036154;28;20017;-89
2023/01/31 07:46:18;;;;;;;1.52;1.13;;;7.60;99.90;;;;;;5052260;28;20017;-90
2023/01/31 07:48:44;;;;;;;1.40;1.05;;;7.60;99.90;;;;;;5036073;28;20032;-90
2023/01/31 07:51:10;;;;;;;1.02;0.93;;;7.60;99.90;;;;;;5036262;28;20028;-90
2023/01/31 07:53:43;;;;;;;2.28;1.30;;;7.60;99.90;;;;;;5035002;28;20501;-89
2023/01/31 07:56:14;;;;;;;0.63;0.63;;;7.70;99.90;;;;;;5033266;28;20032;-90
2023/01/31 07:58:41;;;;;;;0.80;0.80;;;7.70;99.90;;;;;;5035660;28;20041;-89
2023/01/31 08:04:01;;;;;;;13.25;1.58;;;7.70;99.90;;;;;;5055569;28;20083;-91
2023/01/31 08:06:29;;;;;;;13.00;1.77;;;7.60;99.90;;;;;;5054271;28;20025;-91
2023/01/31 08:08:55;;;;;;;12.70;1.98;;;7.60;99.90;;;;;;5036184;28;20045;-90
2023/01/31 08:11:21;;;;;;;9.50;1.30;;;7.60;99.90;;;;;;5036022;28;20040;-91
2023/01/31 08:13:47;;;;;;;13.98;1.85;;;7.50;99.90;;;;;;5053377;28;20025;-91
2023/01/31 08:16:13;;;;;;;26.63;2.90;;;7.50;99.90;;;;;;5035440;28;20020;-91
2023/01/31 08:18:42;;;;;;;17.90;2.38;;;7.40;99.90;;;;;;5036749;28;20029;-90
2023/01/31 08:21:11;;;;;;;14.77;2.47;;;7.40;99.90;;;;;;5041114;28;20085;-91
2023/01/31 08:23:40;;;;;;;10.95;2.25;;;7.40;99.90;;;;;;5039616;28;20478;-91
2023/01/31 08:26:21;;;;;;;18.83;3.03;;;7.30;99.90;;;;;;5034801;28;20486;-91
2023/01/31 08:28:48;;;;;;;23.10;3.33;;;7.30;99.90;;;;;;5047910;28;20490;-90
2023/01/31 08:31:20;;;;;;;23.15;3.53;;;7.30;99.90;;;;;;5034879;28;20485;-90
2023/01/31 08:33:46;;;;;;;16.75;4.10;;;7.30;99.90;;;;;;5034843;28;20462;-90
2023/01/31 08:36:18;;;;;;;20.25;2.90;;;7.30;99.90;;;;;;5035610;28;20025;-90
2023/01/31 08:38:44;;;;;;;19.10;4.32;;;7.30;99.90;;;;;;5034982;28;20051;-90
2023/01/31 08:41:11;;;;;;;22.00;3.10;;;7.30;99.90;;;;;;5035730;28;20091;-92
2023/01/31 08:43:37;;;;;;;21.73;3.63;;;7.30;99.90;;;;;;5035676;28;20501;-91
2023/01/31 08:46:05;;;;;;;11.80;2.17;;;7.30;99.90;;;;;;5053296;28;20478;-90
2023/01/31 08:48:35;;;;;;;21.90;3.45;;;7.30;99.90;;;;;;5053658;28;20124;-89
2023/01/31 08:51:02;;;;;;;20.63;3.85;;;7.30;99.90;;;;;;5035074;28;20057;-89
2023/01/31 08:53:28;;;;;;;14.50;3.72;;;7.30;99.90;;;;;;5053591;28;20033;-90
2023/01/31 08:56:02;;;;;;;21.02;2.90;;;7.30;99.90;;;;;;5035026;28;20483;-88
2023/01/31 08:58:27;;;;;;;21.70;4.07;;;7.30;99.90;;;;;;5057883;28;20044;-91
2023/01/31 09:00:53;;;;;;;13.50;2.05;;;7.30;99.90;;;;;;5041133;28;20029;-93
2023/01/31 09:03:19;;;;;;;20.55;3.00;;;7.40;99.90;;;;;;5040335;28;20036;-92
2023/01/31 09:05:45;;;;;;;26.17;2.90;;;7.40;99.90;;;;;;5040028;28;20048;-92
2023/01/31 09:08:11;;;;;;;22.63;3.50;;;7.40;99.90;;;;;;5037825;28;20079;-93
2023/01/31 09:10:37;;;;;;;14.93;2.42;;;7.40;99.90;;;;;;5038155;28;20464;-92
2023/01/31 09:13:03;;;;;;;16.48;1.90;;;7.40;99.90;;;;;;5038557;28;20021;-91
2023/01/31 09:15:29;;;;;;;22.70;2.58;;;7.40;99.90;;;;;;5038601;28;20040;-92
2023/01/31 09:17:55;;;;;;;12.80;2.40;;;7.50;99.90;;;;;;5038626;28;20021;-91
2023/01/31 09:20:20;;;;;;;22.35;3.35;;;7.50;99.90;;;;;;5038027;28;20052;-92
2023/01/31 09:22:46;;;;;;;27.48;3.95;;;7.60;99.90;;;;;;5038959;28;20033;-91
2023/01/31 09:25:12;;;;;;;20.33;2.70;;;7.60;99.90;;;;;;5039505;28;20029;-94
2023/01/31 09:27:38;;;;;;;22.17;4.18;;;7.60;99.90;;;;;;5039398;28;20017;-90
2023/01/31 09:30:08;;;;;;;12.00;2.50;;;7.60;99.90;;;;;;5039377;28;20029;-91
2023/01/31 09:32:35;;;;;;;16.35;2.58;;;7.60;99.90;;;;;;5039646;28;20028;-92
2023/01/31 09:35:01;;;;;;;31.88;2.85;;;7.70;99.90;;;;;;5039403;28;20033;-93
2023/01/31 09:37:31;;;;;;;20.02;3.20;;;7.70;99.90;;;;;;5039463;28;20048;-91
2023/01/31 09:39:56;;;;;;;25.33;2.97;;;7.80;99.90;;;;;;5039919;28;20110;-91
2023/01/31 09:42:34;;;;;;;27.40;2.63;;;7.90;99.90;;;;;;5039190;28;20020;-92
2023/01/31 09:45:09;;;;;;;21.80;2.95;;;8.00;99.90;;;;;;5039388;28;20029;-92
2023/01/31 09:47:40;;;;;;;23.17;2.63;;;8.10;99.90;;;;;;5039158;28;20052;-93
2023/01/31 09:50:25;;;;;;;;;;;8.20;99.90;;;;;;5039620;28;20479;-91
2023/01/31 09:52:51;;;;;;;23.73;2.28;;;8.30;99.90;;;;;;5038912;28;19909;-92
2023/01/31 09:55:44;;;;;;;21.23;2.63;;;8.40;99.90;;;;;;5039104;28;20036;-92
2023/01/31 09:58:39;;;;;;;19.38;3.10;;;8.60;99.90;;;;;;5007484;28;20040;-92
2023/01/31 10:01:42;;;;;;;28.02;3.55;;;8.70;99.90;;;;;;5045615;28;20033;-92
2023/01/31 10:04:35;;;;;;;20.40;2.67;;;8.80;99.90;;;;;;4940629;29;20039;-91
2023/01/31 10:07:16;;;;;;;20.67;3.55;;;8.90;99.90;;;;;;4940171;29;20046;-91
2023/01/31 10:09:50;;;;;;;21.05;3.85;;;8.90;99.90;;;;;;4939553;29;20039;-91
2023/01/31 10:12:24;;;;;;;22.63;2.72;;;8.90;99.90;;;;;;4940446;29;20481;-93
2023/01/31 10:15:01;;;;;;;14.27;2.47;;;8.80;99.90;;;;;;4940450;29;20047;-91
2023/01/31 10:17:51;;;;;;;20.73;2.80;;;8.60;99.90;;;;;;4939998;29;20027;-92
2023/01/31 10:20:21;;;;;;;10.82;2.50;;;8.40;99.90;;;;;;4939930;29;20588;-92
2023/01/31 10:23:17;;;;;;;14.60;2.47;;;8.20;99.90;;;;;;4940072;29;20066;-93
2023/01/31 10:25:45;;;;;;;22.55;2.88;;;7.90;99.90;;;;;;4940167;29;20047;-90
2023/01/31 10:28:37;;;;;;;21.27;2.35;;;7.80;99.90;;;;;;4939678;29;20039;-90
2023/01/31 10:31:06;;;;;;;10.02;2.17;;;7.80;99.90;;;;;;4913582;29;20043;-91
2023/01/31 10:34:12;;;;;;;9.52;1.70;;;7.90;99.90;;;;;;4955632;29;20035;-91
2023/01/31 10:36:51;;;;;;;6.07;1.08;;;8.00;99.90;;;;;;4940130;29;20047;-92
2023/01/31 10:39:22;;;;;;;15.18;2.08;;;8.10;99.90;;;;;;4946891;28;20034;-92
2023/01/31 10:42:18;;;;;;;15.50;2.58;;;8.20;99.90;;;;;;5039916;28;20025;-92
2023/01/31 10:44:52;;;;;;;14.65;3.38;;;8.40;99.90;;;;;;5038255;28;20124;-92
2023/01/31 10:47:19;;;;;;;15.38;2.92;;;8.60;99.90;;;;;;5038350;28;20505;-91
2023/01/31 10:49:49;;;;;;;21.52;3.70;;;8.70;99.90;;;;;;5038317;28;20036;-92
2023/01/31 10:52:37;;;;;;;23.58;3.40;;;9.00;99.90;;;;;;5037929;28;20020;-91
2023/01/31 10:55:24;;;;;;;21.67;2.33;;;9.20;99.90;;;;;;5037891;28;20490;-91
2023/01/31 10:57:51;;;;;;;17.90;2.45;;;9.30;99.90;;;;;;5037948;28;20028;-91
2023/01/31 11:00:30;;;;;;;29.88;3.15;;;9.50;99.90;;;;;;5039119;28;20151;-91
2023/01/31 11:02:57;;;;;;;17.20;3.28;;;9.60;99.90;;;;;;5038657;28;20085;-92
2023/01/31 11:05:26;;;;;;;15.27;2.53;;;9.70;99.90;;;;;;5038994;28;20123;-91
2023/01/31 11:07:52;;;;;;;19.63;3.17;;;9.80;99.90;;;;;;5039045;28;20052;-91
2023/01/31 11:10:29;;;;;;;16.65;3.20;;;9.90;99.90;;;;;;5039227;28;20029;-92
2023/01/31 11:13:03;;;;;;;16.10;2.60;;;10.10;99.90;;;;;;5038202;28;20049;-92
2023/01/31 11:15:39;;;;;;;27.77;3.28;;;10.20;99.90;;;;;;5038276;28;20065;-91
2023/01/31 11:18:06;;;;;;;16.77;2.58;;;10.20;99.90;;;;;;5037812;28;20029;-93
2023/01/31 11:20:35;;;;;;;14.80;2.30;;;10.30;99.90;;;;;;5036832;28;20413;-92
2023/01/31 11:23:05;;;;;;;12.50;2.60;;;10.40;99.90;;;;;;5037868;28;20068;-92
2023/01/31 11:25:32;;;;;;;12.70;2.08;;;10.40;99.90;;;;;;5037637;28;20025;-92
2023/01/31 11:28:15;;;;;;;15.75;2.03;;;10.40;99.90;;;;;;5036372;28;20041;-94
2023/01/31 11:30:41;;;;;;;10.60;2.22;;;10.40;99.10;;;;;;5037289;28;20460;-93
2023/01/31 11:33:26;;;;;;;15.88;3.25;;;10.40;98.60;;;;;;5037104;28;20057;-93
2023/01/31 11:35:52;;;;;;;15.55;2.85;;;10.60;98.50;;;;;;5037722;28;20187;-92
2023/01/31 11:38:29;;;;;;;19.05;3.30;;;10.60;96.90;;;;;;5041623;28;20165;-93
2023/01/31 11:40:55;;;;;;;14.50;2.95;;;10.60;96.40;;;;;;5050380;28;20063;-93
2023/01/31 11:43:24;;;;;;;17.90;2.55;;;10.70;96.60;;;;;;5042958;28;20021;-92
2023/01/31 11:46:08;;;;;;;17.52;2.70;;;10.80;96.90;;;;;;5037376;28;20119;-92
2023/01/31 11:48:44;;;;;;;16.13;2.97;;;10.90;96.70;;;;;;5037442;28;20033;-93
2023/01/31 11:51:22;;;;;;;19.40;3.53;;;10.90;95.70;;;;;;5036744;28;20029;-93
2023/01/31 11:53:50;;;;;;;17.33;3.03;;;10.90;95.40;;;;;;5036251;28;20076;-93
2023/01/31 11:56:29;;;;;;;18.35;3.38;;;10.90;94.60;;;;;;5036871;28;20198;-92
2023/01/31 11:59:04;;;;;;;21.08;3.88;;;11.10;95.20;;;;;;5036647;28;20041;-92
2023/01/31 12:01:31;;;;;;;25.35;3.80;;;11.20;94.90;;;;;;5037637;28;20525;-94
2023/01/31 12:04:00;;;;;;;17.52;3.15;;;11.30;93.90;;;;;;5036903;28;20356;-94
2023/01/31 12:06:36;;;;;;;14.88;2.85;;;11.40;93.60;;;;;;5036871;28;20091;-93
2023/01/31 12:09:16;;;;;;;31.08;4.10;;;11.50;93.20;;;;;;5036201;28;20037;-95
2023/01/31 12:11:53;;;;;;;16.23;2.72;;;11.60;92.90;;;;;;5037145;28;20032;-93
2023/01/31 12:14:19;;;;;;;19.48;3.38;;;11.60;91.50;;;;;;5036507;28;20546;-95
2023/01/31 12:16:48;;;;;;;17.42;3.15;;;11.70;91.20;;;;;;5036481;28;20059;-93
2023/01/31 12:19:27;;;;;;;21.02;2.83;;;11.70;90.60;;;;;;5036349;28;20021;-94
2023/01/31 12:22:24;;;;;;;31.13;7.00;;;11.70;90.40;;;;;;5036371;28;20013;-94
2023/01/31 12:25:36;;;;;;;20.45;3.65;;;11.70;90.80;;;;;;5013784;28;20033;-94
2023/01/31 12:28:12;;;;;;;14.68;2.75;;;11.80;90.20;;;;;;4935419;29;20127;-93
2023/01/31 12:30:44;;;;;;;23.70;3.63;;;11.80;90.30;;;;;;4935683;29;20122;-94
2023/01/31 12:33:49;;;;;;;8.77;2.05;;;11.80;90.00;;;;;;4935330;29;20112;-93
2023/01/31 12:36:37;;;;;;;17.42;3.00;;;11.80;89.70;;;;;;4881640;29;20505;-93
2023/01/31 12:39:27;;;;;;;11.93;2.30;;;11.80;88.90;;;;;;4881919;29;20441;-93
2023/01/31 12:42:10;;;;;;;12.45;2.70;;;11.80;89.30;;;;;;4881445;29;20059;-93
2023/01/31 12:44:48;;;;;;;16.50;2.55;;;11.80;89.90;;;;;;4881245;29;20488;-92
2023/01/31 12:47:50;;;;;;;22.15;3.00;;;11.80;90.60;;;;;;4881476;29;20020;-92
2023/01/31 12:50:42;;;;;;;14.10;3.25;;;11.70;90.80;;;;;;4880839;29;20079;-93
2023/01/31 12:53:46;;;;;;;9.15;1.58;;;11.20;92.10;;;;;;4880923;29;20029;-94
2023/01/31 12:56:37;;;;;;;23.13;3.45;;;10.50;93.30;;;;;;4881308;29;20039;-93
2023/01/31 12:59:29;;;;;;;18.63;2.55;;;10.20;94.80;;;;;;4885907;29;20116;-94
2023/01/31 13:02:09;;;;;;;12.20;1.60;;;10.10;94.90;;;;;;4915255;28;20050;-94
2023/01/31 13:04:47;;;;;;;14.10;3.03;;;10.10;93.00;;;;;;4957751;28;20125;-94
2023/01/31 13:07:31;;;;;;;11.55;1.92;;;9.80;91.50;;;;;;4957591;28;20122;-94
2023/01/31 13:10:01;;;;;;;11.60;1.67;;;9.50;91.40;;;;;;4973150;28;20046;-94
2023/01/31 13:12:31;;;;;;;9.93;1.50;;;9.40;91.80;;;;;;4996777;28;20026;-94
2023/01/31 13:15:23;;;;;;;13.32;2.08;;;9.60;92.30;;;;;;4997017;28;20487;-93
2023/01/31 13:17:56;;;;;;;12.52;2.10;;;9.90;92.10;;;;;;4982400;28;20132;-93